createdAt,value
2019-03-22T09:09:40.858Z,13.10
2019-03-22T09:11:57.215Z,13.20
2019-03-22T09:14:23.341Z,13.10
2019-03-22T09:16:49.572Z,12.90
2019-03-22T09:19:15.597Z,12.80
2019-03-22T09:21:41.634Z,12.70
2019-03-22T09:24:07.705Z,12.70
2019-03-22T09:26:46.884Z,12.60
2019-03-22T09:29:02.006Z,12.70
2019-03-22T09:31:36.099Z,12.80
2019-03-22T09:34:06.884Z,12.70
2019-03-22T09:36:37.168Z,12.70
2019-03-22T09:39:13.511Z,12.70
2019-03-22T09:41:39.551Z,12.70
2019-03-22T09:44:05.636Z,12.90
2019-03-22T09:46:33.570Z,13.00
2019-03-22T09:49:04.263Z,13.20
2019-03-22T09:51:31.159Z,13.10
2019-03-22T09:53:57.243Z,13.10
2019-03-22T09:56:23.315Z,13.10
2019-03-22T09:58:49.327Z,13.10
2019-03-22T10:01:23.642Z,13.10
2019-03-22T10:03:43.799Z,13.10
2019-03-22T10:06:09.812Z,13.20
2019-03-22T10:08:35.877Z,13.20
2019-03-22T10:11:01.916Z,13.10
2019-03-22T10:13:27.979Z,13.10
2019-03-22T10:15:54.415Z,13.10
2019-03-22T10:18:21.049Z,13.30
2019-03-22T10:20:47.046Z,13.70
2019-03-22T10:23:13.076Z,13.80
2019-03-22T10:25:40.101Z,13.80
2019-03-22T10:28:06.144Z,13.90
2019-03-22T10:30:34.210Z,13.80
2019-03-22T10:33:00.449Z,13.70
2019-03-22T10:35:26.815Z,13.80
2019-03-22T10:38:00.327Z,14.10
2019-03-22T10:40:21.291Z,14.40
2019-03-22T10:42:47.374Z,14.40
2019-03-22T10:45:25.839Z,14.50
2019-03-22T10:47:59.806Z,14.20
2019-03-22T10:50:33.159Z,14.20
2019-03-22T10:53:03.757Z,14.10
2019-03-22T10:55:36.225Z,14.00
2019-03-22T10:58:02.363Z,13.90
2019-03-22T11:00:28.965Z,14.20
2019-03-22T11:03:09.328Z,14.40
2019-03-22T11:05:37.618Z,14.30
2019-03-22T11:08:08.270Z,14.20
2019-03-22T11:10:36.619Z,14.20
2019-03-22T11:13:04.937Z,14.10
2019-03-22T11:15:33.498Z,14.00
2019-03-22T11:18:01.841Z,14.20
2019-03-22T11:20:30.364Z,14.30
2019-03-22T11:23:00.044Z,14.30
2019-03-22T11:25:29.828Z,14.60
2019-03-22T11:28:01.694Z,14.80
2019-03-22T11:30:30.029Z,15.20
2019-03-22T11:32:58.340Z,15.50
2019-03-22T11:35:26.580Z,15.40
2019-03-22T11:37:54.844Z,15.40
2019-03-22T11:40:23.194Z,15.40
2019-03-22T11:42:51.601Z,16.30
2019-03-22T11:45:20.662Z,16.70
2019-03-22T11:47:48.963Z,16.90
2019-03-22T11:50:17.305Z,17.00
2019-03-22T11:52:45.546Z,17.20
2019-03-22T11:55:14.469Z,17.60
2019-03-22T11:57:42.715Z,17.90
2019-03-22T12:00:16.809Z,18.10
2019-03-22T12:02:45.150Z,18.70
2019-03-22T12:05:18.751Z,20.60
2019-03-22T12:07:47.002Z,22.50
2019-03-22T12:10:20.187Z,22.50
2019-03-22T12:12:48.430Z,21.80
2019-03-22T12:15:21.650Z,21.70
2019-03-22T12:17:50.122Z,22.00
2019-03-22T12:20:19.607Z,22.50
2019-03-22T12:22:47.855Z,22.80
2019-03-22T12:25:27.322Z,23.70
2019-03-22T12:27:55.569Z,25.30
2019-03-22T12:30:23.823Z,26.60
2019-03-22T12:32:52.262Z,27.10
2019-03-22T12:35:20.521Z,27.70
2019-03-22T12:37:48.774Z,28.40
2019-03-22T12:40:19.452Z,28.40
2019-03-22T12:42:49.947Z,29.90
2019-03-22T12:45:26.061Z,30.80
2019-03-22T12:47:54.318Z,31.20
2019-03-22T12:50:22.625Z,30.30
2019-03-22T12:52:50.920Z,30.10
2019-03-22T12:55:19.164Z,30.20
2019-03-22T12:57:48.619Z,30.30
2019-03-22T13:00:22.552Z,30.60
2019-03-22T13:02:50.872Z,30.70
2019-03-22T13:05:19.820Z,31.40
2019-03-22T13:07:52.216Z,31.60
2019-03-22T13:10:27.664Z,32.20
2019-03-22T13:12:56.512Z,32.30
2019-03-22T13:15:25.665Z,32.80
2019-03-22T13:17:54.480Z,32.40
2019-03-22T13:20:23.327Z,32.10
2019-03-22T13:22:52.186Z,31.80
2019-03-22T13:25:21.421Z,31.50
2019-03-22T13:27:49.733Z,29.90
2019-03-22T13:30:33.154Z,27.70
2019-03-22T13:33:06.682Z,27.80
2019-03-22T13:35:37.555Z,28.10
2019-03-22T13:38:09.678Z,28.40
2019-03-22T13:40:39.567Z,28.80
2019-03-22T13:43:10.277Z,29.30
2019-03-22T13:45:38.984Z,29.70
2019-03-22T13:48:07.248Z,29.80
2019-03-22T13:50:35.503Z,29.90
2019-03-22T13:53:03.786Z,29.70
2019-03-22T13:55:32.696Z,30.00
2019-03-22T13:58:01.606Z,30.00
2019-03-22T14:00:30.363Z,30.90
2019-03-22T14:03:02.983Z,30.70
2019-03-22T14:05:28.887Z,31.50
2019-03-22T14:07:57.845Z,32.10
2019-03-22T14:10:33.565Z,32.20
2019-03-22T14:13:03.677Z,32.10
2019-03-22T14:15:32.500Z,31.80
2019-03-22T14:18:01.344Z,31.50
2019-03-22T14:20:30.410Z,31.00
2019-03-22T14:22:59.276Z,30.70
2019-03-22T14:25:28.142Z,31.10
2019-03-22T14:27:57.268Z,31.80
2019-03-22T14:30:26.113Z,32.20
2019-03-22T14:32:55.224Z,31.60
2019-03-22T14:35:24.263Z,31.30
2019-03-22T14:37:52.518Z,30.50
2019-03-22T14:40:21.352Z,29.80
2019-03-22T14:42:50.221Z,29.70
2019-03-22T14:45:19.075Z,29.20
2019-03-22T14:47:47.912Z,28.80
2019-03-22T14:50:16.171Z,28.80
2019-03-22T14:52:44.456Z,28.50
2019-03-22T14:55:12.725Z,28.50
2019-03-22T14:57:49.123Z,29.20
2019-03-22T15:00:13.017Z,30.10
2019-03-22T15:02:44.400Z,30.60
2019-03-22T15:05:12.712Z,31.10
2019-03-22T15:07:40.973Z,30.90
2019-03-22T15:10:10.788Z,31.20
2019-03-22T15:12:40.139Z,31.20
2019-03-22T15:15:30.638Z,31.40
2019-03-22T15:18:01.131Z,32.00
2019-03-22T15:20:47.699Z,32.60
2019-03-22T15:23:21.155Z,32.80
2019-03-22T15:26:06.928Z,33.10
2019-03-22T15:28:53.701Z,33.20
2019-03-22T15:31:35.778Z,32.70
2019-03-22T15:34:06.684Z,32.30
2019-03-22T15:36:49.334Z,32.10
2019-03-22T15:39:41.609Z,30.80
2019-03-22T15:42:09.937Z,28.50
2019-03-22T15:44:39.738Z,26.30
2019-03-22T15:47:08.027Z,25.10
2019-03-22T15:49:36.292Z,24.20
2019-03-22T15:52:04.542Z,23.70
2019-03-22T15:54:35.549Z,23.20
2019-03-22T15:57:03.816Z,22.80
2019-03-22T15:59:32.061Z,22.30
2019-03-22T16:02:00.652Z,21.80
2019-03-22T16:04:29.188Z,21.60
2019-03-22T16:06:57.469Z,21.50
2019-03-22T16:09:25.867Z,21.30
2019-03-22T16:11:54.121Z,20.90
2019-03-22T16:14:22.378Z,20.50
2019-03-22T16:16:55.205Z,20.40
2019-03-22T16:19:23.461Z,20.20
2019-03-22T16:21:51.960Z,20.10
2019-03-22T16:24:20.612Z,19.90
2019-03-22T16:26:49.148Z,19.60
2019-03-22T16:29:17.382Z,19.50
2019-03-22T16:31:45.847Z,19.40
2019-03-22T16:34:14.097Z,19.30
2019-03-22T16:36:42.342Z,19.20
2019-03-22T16:39:10.603Z,19.10
2019-03-22T16:41:38.854Z,18.90
2019-03-22T16:44:07.116Z,18.70
2019-03-22T16:46:35.503Z,18.50
2019-03-22T16:49:04.044Z,18.40
2019-03-22T16:51:32.330Z,18.20
2019-03-22T16:54:01.252Z,18.20
2019-03-22T16:56:32.632Z,18.10
2019-03-22T16:59:00.883Z,18.10
2019-03-22T17:01:29.215Z,17.90
2019-03-22T17:04:04.460Z,17.80
2019-03-22T17:06:27.664Z,17.70
2019-03-22T17:08:55.983Z,17.60
2019-03-22T17:11:24.237Z,17.50
2019-03-22T17:13:52.532Z,17.30
2019-03-22T17:16:20.825Z,17.30
2019-03-22T17:18:49.099Z,17.20
2019-03-22T17:21:17.661Z,17.10
2019-03-22T17:23:48.621Z,17.10
2019-03-22T17:26:16.353Z,16.90
2019-03-22T17:28:44.623Z,16.90
2019-03-22T17:31:16.137Z,16.80
2019-03-22T17:33:44.379Z,16.70
2019-03-22T17:36:12.648Z,16.60
2019-03-22T17:38:42.550Z,16.40
2019-03-22T17:41:13.455Z,16.30
2019-03-22T17:43:41.714Z,16.20
2019-03-22T17:46:11.598Z,16.10
2019-03-22T17:48:39.850Z,16.10
2019-03-22T17:51:08.145Z,16.00
2019-03-22T17:53:40.754Z,15.90
2019-03-22T17:56:10.584Z,15.80
2019-03-22T17:58:40.663Z,15.80
2019-03-22T18:01:11.687Z,15.70
2019-03-22T18:03:40.001Z,15.60
2019-03-22T18:06:08.252Z,15.60
2019-03-22T18:08:40.377Z,15.50
2019-03-22T18:11:08.608Z,15.40
2019-03-22T18:13:36.861Z,15.30
2019-03-22T18:16:05.211Z,15.30
2019-03-22T18:18:33.461Z,15.20
2019-03-22T18:21:06.479Z,15.20
2019-03-22T18:23:35.911Z,15.10
2019-03-22T18:26:04.443Z,15.10
2019-03-22T18:28:32.709Z,14.90
2019-03-22T18:31:01.026Z,14.90
2019-03-22T18:33:29.670Z,14.80
2019-03-22T18:35:57.929Z,14.70
2019-03-22T18:38:26.213Z,14.60
2019-03-22T18:40:57.297Z,14.60
2019-03-22T18:43:25.548Z,14.50
2019-03-22T18:45:54.179Z,14.40
2019-03-22T18:48:22.425Z,14.40
2019-03-22T18:50:56.826Z,14.40
2019-03-22T18:53:20.721Z,14.30
2019-03-22T18:55:48.952Z,14.30
2019-03-22T18:58:17.205Z,14.20
2019-03-22T19:00:49.661Z,14.10
2019-03-22T19:03:22.202Z,14.00
2019-03-22T19:05:52.677Z,13.90
2019-03-22T19:08:22.799Z,13.80
2019-03-22T19:10:51.443Z,13.80
2019-03-22T19:13:19.691Z,13.60
2019-03-22T19:15:48.415Z,13.60
2019-03-22T19:18:16.723Z,13.60
2019-03-22T19:20:44.975Z,13.60
2019-03-22T19:23:13.325Z,13.60
2019-03-22T19:25:41.601Z,13.70
2019-03-22T19:28:09.911Z,13.60
2019-03-22T19:30:38.169Z,13.60
2019-03-22T19:33:06.691Z,13.50
2019-03-22T19:35:34.965Z,13.50
2019-03-22T19:38:03.241Z,13.50
2019-03-22T19:40:31.483Z,13.50
2019-03-22T19:43:01.559Z,13.50
2019-03-22T19:45:36.053Z,13.50
2019-03-22T19:48:04.348Z,13.40
2019-03-22T19:50:32.600Z,13.30
2019-03-22T19:53:00.879Z,13.30
2019-03-22T19:55:29.133Z,13.30
2019-03-22T19:57:57.771Z,13.30
2019-03-22T20:00:26.111Z,13.20
2019-03-22T20:02:54.375Z,13.20
2019-03-22T20:05:30.079Z,13.20
2019-03-22T20:07:58.358Z,13.20
2019-03-22T20:10:26.644Z,13.20
2019-03-22T20:12:55.710Z,13.20
2019-03-22T20:15:24.277Z,13.10
2019-03-22T20:17:52.903Z,13.10
2019-03-22T20:20:21.248Z,13.10
2019-03-22T20:22:49.721Z,13.10
2019-03-22T20:25:17.972Z,13.10
2019-03-22T20:27:46.244Z,13.10
2019-03-22T20:30:16.430Z,13.00
2019-03-22T20:32:44.684Z,13.00
2019-03-22T20:35:16.677Z,13.00
2019-03-22T20:37:44.871Z,13.00
2019-03-22T20:40:17.653Z,13.00
2019-03-22T20:42:46.046Z,12.90
2019-03-22T20:45:23.688Z,12.90
2019-03-22T20:47:44.384Z,12.90
2019-03-22T20:50:12.702Z,12.90
2019-03-22T20:52:41.228Z,12.90
2019-03-22T20:55:09.830Z,12.80
2019-03-22T20:57:38.362Z,12.80
2019-03-22T21:00:12.163Z,12.70
2019-03-22T21:02:40.441Z,12.70
2019-03-22T21:05:09.065Z,12.70
2019-03-22T21:07:37.434Z,12.60
2019-03-22T21:10:09.567Z,12.60
2019-03-22T21:12:45.406Z,12.60
2019-03-22T21:15:23.847Z,12.60
2019-03-22T21:17:44.149Z,12.60
2019-03-22T21:20:12.395Z,12.50
2019-03-22T21:22:44.071Z,12.50
2019-03-22T21:25:12.322Z,12.40
2019-03-22T21:27:40.584Z,12.40
2019-03-22T21:30:11.908Z,12.40
2019-03-22T21:32:45.411Z,12.30
2019-03-22T21:35:22.067Z,12.30
2019-03-22T21:37:42.555Z,12.30
2019-03-22T21:40:16.410Z,12.30
2019-03-22T21:42:44.719Z,12.30
2019-03-22T21:45:13.117Z,12.20
2019-03-22T21:47:43.006Z,12.20
2019-03-22T21:50:15.763Z,12.20
2019-03-22T21:52:44.452Z,12.20
2019-03-22T21:55:14.380Z,12.10
2019-03-22T21:57:42.655Z,12.10
2019-03-22T22:00:12.607Z,12.00
2019-03-22T22:02:40.886Z,12.00
2019-03-22T22:05:09.161Z,12.00
2019-03-22T22:07:37.440Z,12.00
2019-03-22T22:10:07.029Z,12.00
2019-03-22T22:12:35.287Z,11.90
2019-03-22T22:15:05.235Z,11.90
2019-03-22T22:17:34.092Z,11.80
2019-03-22T22:20:02.371Z,11.80
2019-03-22T22:22:30.711Z,11.80
2019-03-22T22:24:58.961Z,11.80
2019-03-22T22:27:27.207Z,11.70
2019-03-22T22:29:55.723Z,11.70
2019-03-22T22:32:43.667Z,11.70
2019-03-22T22:35:11.982Z,11.70
2019-03-22T22:37:40.234Z,11.70
2019-03-22T22:40:10.836Z,11.60
2019-03-22T22:42:39.188Z,11.60
2019-03-22T22:45:09.106Z,11.60
2019-03-22T22:47:37.433Z,11.60
2019-03-22T22:50:31.299Z,11.60
2019-03-22T22:52:59.566Z,11.60
2019-03-22T22:55:27.811Z,11.60
2019-03-22T22:57:57.814Z,11.50
2019-03-22T23:00:27.657Z,11.50
2019-03-22T23:02:55.938Z,11.50
2019-03-22T23:05:24.215Z,11.50
2019-03-22T23:07:58.258Z,11.40
2019-03-22T23:10:26.504Z,11.40
2019-03-22T23:12:55.875Z,11.30
2019-03-22T23:15:24.495Z,11.30
2019-03-22T23:17:52.747Z,11.30
2019-03-22T23:20:21.677Z,11.20
2019-03-22T23:22:57.631Z,11.20
2019-03-22T23:25:28.671Z,11.20
2019-03-22T23:28:05.411Z,11.20
2019-03-22T23:30:35.723Z,11.20
2019-03-22T23:33:03.999Z,11.20
2019-03-22T23:35:32.608Z,11.20
2019-03-22T23:38:00.958Z,11.10
2019-03-22T23:40:29.212Z,11.10
2019-03-22T23:42:57.467Z,11.10
2019-03-22T23:45:25.739Z,11.10
2019-03-22T23:47:54.062Z,11.10
2019-03-22T23:50:25.028Z,11.10
2019-03-22T23:52:53.358Z,11.10
2019-03-22T23:55:21.904Z,11.10
2019-03-22T23:57:50.238Z,11.00
